Time;durP1;ratioP1;P1;durP2;ratioP2;P2;SDS_P1;SDS_P2;PMS_P1;PMS_P2;Temp;Humidity;BMP_temperature;BMP_pressure;BME280_temperature;BME280_humidity;BME280_pressure;Samples;Min_cycle;Max_cycle;Signal;HPM_P1;HPM_P2
2021/12/07 00:01:03;;;;;;;;;13.00;12.67;;;;;;;;5078683;28;11493;-69
2021/12/07 00:03:28;;;;;;;;;10.33;10.00;;;;;;;;5078534;28;11426;-71
2021/12/07 00:05:54;;;;;;;;;13.33;10.00;;;;;;;;5078500;28;11354;-70
2021/12/07 00:08:19;;;;;;;;;12.33;10.00;;;;;;;;5078333;28;8879;-71
2021/12/07 00:10:44;;;;;;;;;13.00;13.00;;;;;;;;5078015;28;8855;-71
2021/12/07 00:13:10;;;;;;;;;14.00;11.33;;;;;;;;5077760;28;10343;-70
2021/12/07 00:15:36;;;;;;;;;10.33;7.00;;;;;;;;5077945;28;11422;-71
2021/12/07 00:18:02;;;;;;;;;19.00;11.67;;;;;;;;5077454;28;22820;-70
2021/12/07 00:20:27;;;;;;;;;14.33;12.00;;;;;;;;5077740;28;21498;-70
2021/12/07 00:22:56;;;;;;;;;17.00;13.00;;;;;;;;5078764;28;12193;-71
2021/12/07 00:25:21;;;;;;;;;10.67;10.67;;;;;;;;5077961;28;10703;-70
2021/12/07 00:27:47;;;;;;;;;10.00;10.00;;;;;;;;5077972;28;11406;-70
2021/12/07 00:30:13;;;;;;;;;12.33;10.33;;;;;;;;5077778;28;8844;-70
2021/12/07 00:32:43;;;;;;;;;8.00;7.00;;;;;;;;5078756;28;11809;-69
2021/12/07 00:35:55;;;;;;;;;13.67;11.00;;;;;;;;5076720;28;24101;-71
2021/12/07 00:37:56;;;;;;;;;13.67;10.67;;;;;;;;5076911;28;22308;-71
2021/12/07 00:40:22;;;;;;;;;14.00;10.00;;;;;;;;5077861;28;9567;-71
2021/12/07 00:42:48;;;;;;;;;12.00;10.00;;;;;;;;5077854;28;11666;-71
2021/12/07 00:45:16;;;;;;;;;9.67;8.33;;;;;;;;5078654;28;8780;-72
2021/12/07 00:47:42;;;;;;;;;9.00;7.00;;;;;;;;5077203;28;23577;-72
2021/12/07 00:50:08;;;;;;;;;14.33;6.00;;;;;;;;5077674;28;10253;-70
2021/12/07 00:52:34;;;;;;;;;11.33;10.00;;;;;;;;5081256;28;21406;-71
2021/12/07 00:55:00;;;;;;;;;12.67;9.00;;;;;;;;5081030;28;21498;-70
2021/12/07 00:57:25;;;;;;;;;16.00;10.67;;;;;;;;5081179;28;21698;-72
2021/12/07 00:59:51;;;;;;;;;8.00;8.00;;;;;;;;5080423;28;21417;-70
2021/12/07 01:02:16;;;;;;;;;12.33;11.33;;;;;;;;5079967;28;22670;-70
2021/12/07 01:04:50;;;;;;;;;12.00;12.00;;;;;;;;5080009;28;22475;-70
2021/12/07 01:07:33;;;;;;;;;10.67;8.00;;;;;;;;5081001;28;10423;-69
2021/12/07 01:26:23;;;;;;;;;12.67;10.33;;;;;;;;5080513;28;22377;-70
2021/12/07 01:28:48;;;;;;;;;12.67;10.33;;;;;;;;5080816;28;8913;-70
2021/12/07 01:36:24;;;;;;;;;12.67;12.00;;;;;;;;5080286;28;11560;-70
2021/12/07 01:47:01;;;;;;;;;15.00;13.00;;;;;;;;5080337;28;23401;-70
2021/12/07 02:00:25;;;;;;;;;12.00;11.00;;;;;;;;5080695;28;11397;-70
2021/12/07 02:02:51;;;;;;;;;12.00;11.33;;;;;;;;5079914;28;11490;-70
2021/12/07 02:05:16;;;;;;;;;12.67;12.33;;;;;;;;5080812;28;8978;-71
2021/12/07 02:07:42;;;;;;;;;12.67;11.00;;;;;;;;5080456;28;9514;-71
2021/12/07 02:10:13;;;;;;;;;11.67;11.00;;;;;;;;5080510;28;8880;-70
2021/12/07 02:12:44;;;;;;;;;13.00;11.67;;;;;;;;5080291;28;8826;-69
2021/12/07 02:15:17;;;;;;;;;9.67;9.67;;;;;;;;5080004;28;11608;-70
2021/12/07 02:17:43;;;;;;;;;9.67;9.00;;;;;;;;5080043;28;22325;-71
2021/12/07 02:20:09;;;;;;;;;12.00;12.00;;;;;;;;5080264;28;9017;-70
2021/12/07 02:22:35;;;;;;;;;11.00;8.00;;;;;;;;5079557;28;22450;-70
2021/12/07 02:25:00;;;;;;;;;11.67;11.67;;;;;;;;5078932;28;21876;-70
2021/12/07 02:27:26;;;;;;;;;11.00;8.67;;;;;;;;5079975;28;21455;-71
2021/12/07 02:29:51;;;;;;;;;11.00;11.00;;;;;;;;5079976;28;21382;-70
2021/12/07 02:32:16;;;;;;;;;11.00;9.00;;;;;;;;5080006;28;16256;-70
2021/12/07 02:34:53;;;;;;;;;9.67;8.33;;;;;;;;5080002;28;16295;-71
2021/12/07 02:37:21;;;;;;;;;11.00;11.00;;;;;;;;5079702;28;21679;-70
2021/12/07 02:39:48;;;;;;;;;12.67;9.67;;;;;;;;5079355;28;22296;-71
2021/12/07 02:42:13;;;;;;;;;11.00;10.33;;;;;;;;5078907;28;21733;-71
2021/12/07 02:44:39;;;;;;;;;14.33;14.33;;;;;;;;5079156;28;21428;-70
2021/12/07 02:47:04;;;;;;;;;11.75;11.00;;;;;;;;5079834;28;10546;-70
2021/12/07 02:49:29;;;;;;;;;12.00;9.50;;;;;;;;5077779;28;13572;-71
2021/12/07 02:51:55;;;;;;;;;19.75;15.50;;;;;;;;5078685;28;21668;-71
2021/12/07 02:54:21;;;;;;;;;14.50;13.00;;;;;;;;5077546;28;22038;-70
2021/12/07 02:56:46;;;;;;;;;14.25;11.75;;;;;;;;5079618;28;11456;-71
2021/12/07 02:59:12;;;;;;;;;15.25;12.75;;;;;;;;5079918;28;10399;-70
2021/12/07 03:01:44;;;;;;;;;9.50;9.50;;;;;;;;5079538;28;8900;-71
2021/12/07 03:04:17;;;;;;;;;25.25;15.75;;;;;;;;5078483;28;22278;-70
2021/12/07 03:26:04;;;;;;;;;12.75;10.75;;;;;;;;5078772;28;22150;-69
2021/12/07 03:28:30;;;;;;;;;14.50;12.75;;;;;;;;5078136;28;22707;-70
2021/12/07 03:30:55;;;;;;;;;12.25;11.00;;;;;;;;5078701;28;10413;-70
2021/12/07 03:33:20;;;;;;;;;14.75;11.75;;;;;;;;5078031;28;11362;-70
2021/12/07 03:35:46;;;;;;;;;14.00;12.25;;;;;;;;5078597;28;11395;-70
2021/12/07 03:38:11;;;;;;;;;13.50;11.50;;;;;;;;5079051;28;10232;-71
2021/12/07 03:40:37;;;;;;;;;14.25;12.25;;;;;;;;5079008;28;12492;-71
2021/12/07 03:43:03;;;;;;;;;17.25;12.00;;;;;;;;5078177;28;11845;-71
2021/12/07 03:45:28;;;;;;;;;9.00;8.50;;;;;;;;5078615;28;11628;-71
2021/12/07 03:47:54;;;;;;;;;13.50;11.00;;;;;;;;5078987;28;22394;-71
2021/12/07 03:50:21;;;;;;;;;16.50;14.00;;;;;;;;5078687;28;23418;-72
2021/12/07 03:52:47;;;;;;;;;4.00;3.00;;;;;;;;5079679;28;8944;-71
2021/12/07 03:55:12;;;;;;;;;14.00;13.00;;;;;;;;5079037;28;22120;-73
2021/12/07 03:57:37;;;;;;;;;12.25;11.50;;;;;;;;5078981;28;22223;-71
2021/12/07 04:00:05;;;;;;;;;12.00;10.75;;;;;;;;5078474;28;11402;-70
2021/12/07 04:02:36;;;;;;;;;14.00;12.75;;;;;;;;5078520;28;10455;-71
2021/12/07 04:05:08;;;;;;;;;13.25;13.25;;;;;;;;5078654;28;8929;-72
2021/12/07 04:07:33;;;;;;;;;16.75;12.75;;;;;;;;5078335;28;10914;-72
2021/12/07 04:09:59;;;;;;;;;9.50;8.00;;;;;;;;5078086;28;12023;-71
2021/12/07 04:12:24;;;;;;;;;13.25;13.25;;;;;;;;5077789;28;22414;-72
2021/12/07 04:14:49;;;;;;;;;16.50;11.00;;;;;;;;5077762;28;24319;-72
2021/12/07 04:17:15;;;;;;;;;17.00;13.75;;;;;;;;5078867;28;11372;-72
2021/12/07 18:26:29;;;;;;;;;43.00;37.50;;;;;;;;5137466;27;1533175;-83
2021/12/07 18:28:55;;;;;;;;;40.75;36.25;;;;;;;;5188296;27;22725;-80
2021/12/07 18:31:21;;;;;;;;;36.33;35.67;;;;;;;;5186787;27;11825;-80
2021/12/07 18:33:48;;;;;;;;;35.67;35.67;;;;;;;;5199583;27;13235;-80
2021/12/07 18:36:14;;;;;;;;;36.33;33.33;;;;;;;;5180135;27;9463;-76
2021/12/07 18:38:40;;;;;;;;;38.67;33.00;;;;;;;;5198770;27;11388;-76
2021/12/07 18:41:07;;;;;;;;;30.67;30.00;;;;;;;;5180326;27;13395;-73
2021/12/07 18:43:34;;;;;;;;;32.00;27.00;;;;;;;;5199157;27;8750;-73
2021/12/07 18:45:59;;;;;;;;;32.33;30.00;;;;;;;;5197885;27;11615;-73
2021/12/07 18:48:26;;;;;;;;;36.00;32.67;;;;;;;;5199528;27;11351;-77
2021/12/07 18:50:51;;;;;;;;;36.33;33.00;;;;;;;;5169245;27;13576;-73
2021/12/07 18:53:17;;;;;;;;;37.67;36.67;;;;;;;;5180469;27;10338;-77
2021/12/07 18:55:43;;;;;;;;;36.00;32.33;;;;;;;;5188549;27;11373;-75
2021/12/07 18:58:09;;;;;;;;;35.67;35.33;;;;;;;;5197884;27;11572;-72
2021/12/07 19:00:37;;;;;;;;;37.33;32.67;;;;;;;;5198417;27;10432;-74
2021/12/07 19:03:03;;;;;;;;;36.00;31.00;;;;;;;;5179176;27;13565;-74
2021/12/07 19:05:28;;;;;;;;;43.33;35.33;;;;;;;;5198630;27;11449;-77
2021/12/07 19:07:54;;;;;;;;;42.33;37.67;;;;;;;;5195215;27;13722;-79
2021/12/07 19:10:20;;;;;;;;;43.00;38.00;;;;;;;;5169757;27;12560;-77
2021/12/07 19:12:46;;;;;;;;;43.33;37.67;;;;;;;;5190560;27;11436;-76
2021/12/07 19:15:12;;;;;;;;;38.67;37.67;;;;;;;;5190307;27;10438;-76
2021/12/07 19:17:39;;;;;;;;;37.33;34.33;;;;;;;;5172940;27;10587;-76
2021/12/07 19:20:06;;;;;;;;;39.33;36.00;;;;;;;;5188169;27;11636;-77
2021/12/07 19:22:31;;;;;;;;;30.67;30.33;;;;;;;;5188529;27;12616;-76
2021/12/07 19:24:57;;;;;;;;;41.67;37.67;;;;;;;;5186476;27;12062;-75
2021/12/07 19:27:24;;;;;;;;;42.67;37.33;;;;;;;;5187448;27;13447;-77
2021/12/07 19:29:50;;;;;;;;;35.00;33.00;;;;;;;;5194644;27;11462;-78
2021/12/07 19:32:15;;;;;;;;;42.00;39.00;;;;;;;;5189962;27;15235;-77
2021/12/07 19:34:40;;;;;;;;;37.33;36.33;;;;;;;;5188513;27;10359;-76
2021/12/07 19:37:06;;;;;;;;;44.00;36.33;;;;;;;;5181438;27;13229;-78
2021/12/07 19:39:33;;;;;;;;;36.33;36.33;;;;;;;;5178045;27;10428;-81
2021/12/07 19:41:58;;;;;;;;;40.33;36.33;;;;;;;;5175997;27;10432;-80
2021/12/07 19:44:24;;;;;;;;;38.33;36.67;;;;;;;;5177066;27;9576;-80
2021/12/07 19:46:50;;;;;;;;;35.33;33.67;;;;;;;;5174369;27;13425;-76
2021/12/07 19:49:15;;;;;;;;;39.33;34.00;;;;;;;;5177122;27;8958;-79
2021/12/07 19:51:41;;;;;;;;;41.33;36.67;;;;;;;;5176761;27;11427;-79
2021/12/07 19:54:09;;;;;;;;;43.00;34.33;;;;;;;;5177407;27;13414;-79
2021/12/07 19:56:41;;;;;;;;;36.33;35.33;;;;;;;;5171926;27;11674;-80
2021/12/07 19:59:08;;;;;;;;;41.33;36.33;;;;;;;;5173329;27;13660;-77
2021/12/07 20:01:35;;;;;;;;;37.33;35.00;;;;;;;;5179369;27;10576;-77
2021/12/07 20:04:00;;;;;;;;;33.00;33.00;;;;;;;;5176839;27;13318;-77
2021/12/07 20:06:27;;;;;;;;;48.00;40.00;;;;;;;;5176009;27;10449;-76
2021/12/07 20:08:53;;;;;;;;;42.25;39.75;;;;;;;;5174487;27;10681;-76
2021/12/07 20:11:19;;;;;;;;;59.75;49.00;;;;;;;;5163100;27;15449;-76
2021/12/07 20:13:45;;;;;;;;;39.75;34.75;;;;;;;;5183584;27;13508;-74
2021/12/07 20:16:13;;;;;;;;;51.75;42.50;;;;;;;;5183458;27;14560;-76
2021/12/07 20:18:41;;;;;;;;;58.50;44.25;;;;;;;;5163656;27;13570;-75
2021/12/07 20:21:07;;;;;;;;;50.50;43.00;;;;;;;;5173621;27;12175;-77
2021/12/07 20:23:34;;;;;;;;;57.25;44.75;;;;;;;;5179814;27;13759;-75
2021/12/07 20:26:00;;;;;;;;;53.50;43.00;;;;;;;;5174735;27;11466;-76
2021/12/07 20:28:26;;;;;;;;;58.25;47.00;;;;;;;;5173383;27;11401;-75
2021/12/07 20:30:53;;;;;;;;;50.75;42.75;;;;;;;;5171556;27;10444;-74
2021/12/07 20:33:19;;;;;;;;;54.50;46.75;;;;;;;;5171489;27;11626;-74
2021/12/07 20:35:44;;;;;;;;;66.25;52.00;;;;;;;;5172662;27;11043;-74
2021/12/07 20:38:10;;;;;;;;;59.00;49.50;;;;;;;;5150883;27;15510;-74
2021/12/07 20:40:35;;;;;;;;;61.00;50.50;;;;;;;;5171614;27;13645;-76
2021/12/07 20:43:03;;;;;;;;;63.25;50.25;;;;;;;;5178891;27;10589;-74
2021/12/07 20:45:29;;;;;;;;;61.75;51.75;;;;;;;;5172866;27;11676;-74
2021/12/07 20:47:55;;;;;;;;;62.25;50.50;;;;;;;;5170331;27;10540;-75
2021/12/07 20:50:21;;;;;;;;;66.25;51.00;;;;;;;;5171034;27;11377;-75
2021/12/07 20:52:47;;;;;;;;;65.75;51.75;;;;;;;;5177126;27;11507;-76
2021/12/07 20:55:13;;;;;;;;;61.25;50.25;;;;;;;;5171111;27;11406;-74
2021/12/07 20:57:38;;;;;;;;;63.75;51.25;;;;;;;;5155826;27;11078;-75
2021/12/07 21:00:07;;;;;;;;;62.75;50.75;;;;;;;;5174758;27;9761;-74
2021/12/07 21:02:32;;;;;;;;;61.00;51.00;;;;;;;;5175965;27;10453;-73
2021/12/07 21:04:58;;;;;;;;;58.75;49.50;;;;;;;;5174705;27;11419;-74
2021/12/07 21:07:24;;;;;;;;;57.25;48.25;;;;;;;;5171599;27;13367;-73
2021/12/07 21:09:49;;;;;;;;;56.25;48.50;;;;;;;;5180901;27;11431;-74
2021/12/07 21:12:15;;;;;;;;;62.50;50.00;;;;;;;;5167739;27;11596;-77
2021/12/07 21:14:40;;;;;;;;;60.00;49.25;;;;;;;;5176243;27;13293;-77
2021/12/07 21:17:06;;;;;;;;;60.50;50.25;;;;;;;;5182550;27;13416;-78
2021/12/07 21:19:31;;;;;;;;;59.50;47.50;;;;;;;;5163703;27;11410;-77
2021/12/07 21:21:57;;;;;;;;;59.25;47.50;;;;;;;;5182631;27;13375;-77
2021/12/07 21:24:22;;;;;;;;;58.25;44.50;;;;;;;;5182802;27;8798;-77
2021/12/07 21:26:51;;;;;;;;;61.50;48.00;;;;;;;;5161748;27;8993;-77
2021/12/07 21:29:17;;;;;;;;;45.50;40.75;;;;;;;;5161610;27;13740;-77
2021/12/07 21:31:43;;;;;;;;;58.50;47.25;;;;;;;;5160576;27;13596;-76
2021/12/07 21:34:08;;;;;;;;;46.67;39.00;;;;;;;;5161077;27;12200;-76
2021/12/07 21:36:34;;;;;;;;;44.75;39.75;;;;;;;;5160743;27;14386;-75
2021/12/07 21:39:00;;;;;;;;;42.00;39.25;;;;;;;;5161376;27;11400;-75
2021/12/07 21:41:25;;;;;;;;;56.25;44.00;;;;;;;;5161477;27;11140;-77
2021/12/07 21:43:51;;;;;;;;;47.75;42.25;;;;;;;;5162132;27;13406;-77
2021/12/07 21:46:16;;;;;;;;;51.00;43.25;;;;;;;;5161041;27;13434;-75
2021/12/07 21:48:41;;;;;;;;;53.75;43.25;;;;;;;;5160872;27;12373;-77
2021/12/07 21:51:07;;;;;;;;;51.00;43.00;;;;;;;;5160677;27;8930;-76
2021/12/07 21:53:32;;;;;;;;;34.67;31.00;;;;;;;;5161050;27;12636;-76
2021/12/07 21:55:58;;;;;;;;;39.67;32.33;;;;;;;;5098342;27;12241;-75
2021/12/07 21:58:23;;;;;;;;;35.33;31.67;;;;;;;;5135850;27;12775;-75
2021/12/07 22:00:48;;;;;;;;;30.00;28.00;;;;;;;;5121200;27;11362;-76
2021/12/07 22:03:14;;;;;;;;;36.00;34.00;;;;;;;;5116923;28;12859;-78
2021/12/07 22:05:41;;;;;;;;;34.67;31.67;;;;;;;;5116603;27;10019;-76
2021/12/07 22:08:16;;;;;;;;;47.50;41.00;;;;;;;;5117458;27;11503;-78
2021/12/07 22:10:43;;;;;;;;;45.00;39.25;;;;;;;;5118267;27;13368;-76
2021/12/07 22:13:10;;;;;;;;;36.00;30.67;;;;;;;;5119308;27;12290;-78
2021/12/07 22:15:35;;;;;;;;;37.67;35.33;;;;;;;;5119101;27;13354;-77
2021/12/07 22:18:01;;;;;;;;;44.33;34.67;;;;;;;;5134676;27;11367;-77
2021/12/07 22:20:26;;;;;;;;;43.00;37.00;;;;;;;;5138724;27;13280;-75
2021/12/07 22:22:51;;;;;;;;;35.33;32.33;;;;;;;;5138898;27;11604;-77
2021/12/07 22:25:16;;;;;;;;;44.75;38.50;;;;;;;;5138998;27;13226;-76
2021/12/07 22:27:42;;;;;;;;;38.33;34.67;;;;;;;;5138066;27;13368;-76
2021/12/07 22:30:10;;;;;;;;;48.75;44.00;;;;;;;;5137560;27;15766;-77
2021/12/07 22:32:36;;;;;;;;;44.00;37.50;;;;;;;;5138766;27;13568;-77
2021/12/07 22:35:02;;;;;;;;;48.25;38.00;;;;;;;;5138323;27;14239;-76
2021/12/07 22:37:27;;;;;;;;;44.50;40.25;;;;;;;;5140163;27;11456;-77
2021/12/07 22:39:53;;;;;;;;;46.50;43.50;;;;;;;;5140401;27;12255;-77
2021/12/07 22:42:18;;;;;;;;;50.25;43.25;;;;;;;;5140096;27;11532;-77
2021/12/07 22:44:44;;;;;;;;;40.25;35.00;;;;;;;;5139619;27;14488;-77
2021/12/07 22:47:10;;;;;;;;;44.50;40.00;;;;;;;;5138951;27;14815;-78
2021/12/07 22:49:35;;;;;;;;;46.50;44.25;;;;;;;;5139526;27;11848;-75
2021/12/07 22:52:01;;;;;;;;;39.75;38.50;;;;;;;;5140003;27;11445;-77
2021/12/07 22:54:26;;;;;;;;;39.50;36.50;;;;;;;;5139484;27;13514;-77
2021/12/07 22:56:52;;;;;;;;;44.25;37.50;;;;;;;;5140263;27;9506;-77
2021/12/07 22:59:18;;;;;;;;;37.25;33.00;;;;;;;;5139797;27;12288;-77
2021/12/07 23:01:44;;;;;;;;;38.00;29.50;;;;;;;;5139493;27;13448;-75
2021/12/07 23:04:09;;;;;;;;;36.00;34.00;;;;;;;;5139544;27;12479;-76
2021/12/07 23:06:35;;;;;;;;;33.75;31.00;;;;;;;;5139882;27;12266;-76
2021/12/07 23:09:01;;;;;;;;;38.75;36.25;;;;;;;;5139109;27;10713;-77
2021/12/07 23:11:28;;;;;;;;;40.75;33.75;;;;;;;;5140740;27;11539;-77
2021/12/07 23:13:53;;;;;;;;;33.75;31.00;;;;;;;;5142121;27;12678;-75
2021/12/07 23:16:19;;;;;;;;;28.25;27.00;;;;;;;;5143409;27;13200;-76
2021/12/07 23:18:45;;;;;;;;;41.25;34.00;;;;;;;;5142741;27;11614;-78
2021/12/07 23:21:12;;;;;;;;;32.25;26.75;;;;;;;;5142487;27;10955;-75
2021/12/07 23:23:39;;;;;;;;;32.75;31.25;;;;;;;;5135273;27;13507;-75
2021/12/07 23:26:05;;;;;;;;;35.75;30.75;;;;;;;;5130004;27;11438;-76
2021/12/07 23:28:32;;;;;;;;;32.00;30.67;;;;;;;;5122617;27;10349;-76
2021/12/07 23:31:00;;;;;;;;;33.33;30.67;;;;;;;;5122346;27;12772;-76
2021/12/07 23:33:25;;;;;;;;;34.67;30.33;;;;;;;;5122310;27;8895;-75
2021/12/07 23:35:52;;;;;;;;;31.33;27.67;;;;;;;;5119522;27;11989;-76
2021/12/07 23:38:17;;;;;;;;;35.67;29.00;;;;;;;;5119666;27;12510;-77
2021/12/07 23:40:44;;;;;;;;;32.00;26.67;;;;;;;;5119836;27;11514;-77
2021/12/07 23:43:09;;;;;;;;;6.33;1.67;;;;;;;;5120773;28;14530;-76
2021/12/07 23:45:35;;;;;;;;;29.33;26.00;;;;;;;;5121093;28;22463;-76
2021/12/07 23:48:01;;;;;;;;;31.00;26.00;;;;;;;;5121420;27;24055;-76
2021/12/07 23:50:26;;;;;;;;;27.75;24.50;;;;;;;;5120518;28;10583;-76
2021/12/07 23:52:52;;;;;;;;;34.33;27.33;;;;;;;;5120249;27;16409;-76
2021/12/07 23:55:18;;;;;;;;;33.67;27.00;;;;;;;;5121713;27;13231;-75
2021/12/07 23:57:44;;;;;;;;;26.67;26.33;;;;;;;;5121501;27;11760;-76
